Latest Weather Observations for Adelaide Airport

IDS60901

Issued at 10:51 pm CDT Saturday 28 February 2015 (issued every 10 minutes, with the page automatically refreshed every 10 minutes)

About weather observations | Map of Adelaide area stations | Latest observations for Adelaide area | Other Formats
Station Details ID: 023034 Name: ADELAIDE AIRPORT Lat: -34.95 Lon: 138.52 Height: 2.0 m
Data from the previous 72 hours. | See also: Recent months at Adelaide Airport
Date/Time
CDT
Tmp

°C
App
Tmp
°C
Dew
Point
°C
Rel
Hum
%
Delta-T

°C
Wind Press
QNH
hPa
Press
MSL
hPa
Rain
since
9 am
mm
Dir
 
Spd
km/h
Gust
km/h
Spd
kts
Gust
kts
28/10:30pm 18.9 15.8 12.3 65 3.7 S 20 28 11 15 1011.9 - 0.0
28/10:00pm 19.0 14.4 12.2 64 3.8 S 28 39 15 21 1011.7 - 0.0
28/09:30pm 19.4 14.4 12.2 63 4.0 S 30 37 16 20 1011.0 - 0.0
28/09:00pm 19.8 14.8 13.3 66 3.7 SSW 32 41 17 22 1010.4 1010.3 0.0
28/08:30pm 20.4 16.9 14.4 68 3.5 SSW 26 35 14 19 1009.5 - 0.0
28/08:00pm 20.8 16.4 15.2 70 3.3 SSW 32 48 17 26 1008.8 - 0.0
28/07:30pm 21.3 17.1 16.2 72 3.1 SSW 33 46 18 25 1008.2 - 0.0
28/07:00pm 21.6 16.6 16.1 71 3.3 SSW 37 50 20 27 1007.6 - 0.0
28/06:30pm 22.0 17.7 16.0 68 3.6 SSW 33 43 18 23 1006.9 - 0.0
28/06:00pm 24.0 20.7 16.1 61 4.8 SSW 28 39 15 21 1006.6 1006.5 0.0
28/05:30pm 24.1 20.5 17.2 65 4.3 SSW 32 41 17 22 1006.6 - 0.0
28/05:00pm 23.9 19.5 16.6 63 4.5 SSW 35 48 19 26 1005.8 - 0.0
28/04:30pm 25.2 21.8 16.8 59 5.2 SSW 30 39 16 21 1004.9 - 0.0
28/04:00pm 26.5 22.7 16.7 55 6.1 SSW 32 41 17 22 1004.7 - 0.0
28/03:30pm 25.7 23.2 17.0 58 5.4 SSW 26 37 14 20 1004.6 - 0.0
28/03:00pm 25.3 22.8 18.0 64 4.6 SW 28 39 15 21 1004.9 1004.8 0.0
28/02:30pm 25.9 22.4 16.5 56 5.8 SW 30 35 16 19 1004.2 - 0.0
28/02:00pm 26.5 24.5 16.5 54 6.2 SSW 22 30 12 16 1004.1 - 0.0
28/01:30pm 26.2 23.6 17.8 60 5.3 SW 28 37 15 20 1004.2 - 0.0
28/01:00pm 29.4 26.9 14.0 39 9.3 SW 20 30 11 16 1003.9 - 0.0
28/12:30pm 31.3 27.8 12.2 31 11.2 W 22 30 12 16 1004.2 - 0.0
28/12:00pm 32.3 28.8 10.8 26 12.5 NW 20 28 11 15 1004.1 1004.0 0.0
28/11:30am 31.7 27.5 11.1 28 11.9 NW 24 32 13 17 1004.2 - 0.0
28/11:00am 31.0 27.4 12.9 33 10.8 NNW 24 32 13 17 1004.1 - 0.0
28/10:30am 29.9 27.9 14.0 37 9.6 NW 17 28 9 15 1004.0 - 0.0
28/10:00am 29.8 27.6 14.3 38 9.4 NNW 19 28 10 15 1004.1 - 0.0
28/09:30am 29.8 25.3 12.5 34 10.2 N 28 37 15 20 1004.1 - 0.0
28/09:00am 28.9 24.8 12.8 37 9.5 N 26 33 14 18 1003.8 1003.7 0.0
28/08:30am 28.1 23.2 12.6 38 9.1 N 30 37 16 20 1003.8 - 0.0
28/08:00am 28.1 25.2 12.8 38 9.0 NNE 20 28 11 15 1003.4 - 0.0
28/07:30am 26.4 23.7 12.9 43 7.9 NNE 19 26 10 14 1003.1 - 0.0
28/07:00am 25.9 23.0 12.4 43 7.8 NNE 19 28 10 15 1002.8 - 0.0
28/06:30am 26.3 23.5 12.5 42 8.0 NE 19 22 10 12 1002.8 - 0.0
28/05:30am 26.6 23.5 11.6 39 8.6 NE 19 24 10 13 1002.5 - 0.0
28/05:00am 26.5 23.0 11.0 38 8.8 NNE 20 28 11 15 1002.3 - 0.0
28/04:30am 26.9 24.0 11.1 37 9.0 NE 17 26 9 14 1002.3 - 0.0
28/04:00am 26.8 23.8 11.9 39 8.6 ENE 19 28 10 15 1002.6 - 0.0
28/03:30am 26.7 22.8 12.0 40 8.5 ENE 24 32 13 17 1003.0 - 0.0
28/03:00am 26.4 22.5 12.0 40 8.3 ENE 24 33 13 18 1003.3 1003.2 0.0
28/02:30am 26.4 23.4 12.5 42 8.0 ENE 20 28 11 15 1003.9 - 0.0
28/02:00am 25.8 23.8 13.8 47 7.1 ENE 17 30 9 16 1004.4 - 0.0
28/01:30am 25.3 23.1 14.4 50 6.5 E 19 28 10 15 1004.9 - 0.0
28/01:00am 26.2 25.2 13.3 45 7.6 SSW 11 17 6 9 1006.2 - 0.0
28/12:30am 26.1 22.0 12.7 43 7.8 E 26 33 14 18 1006.1 - 0.0
 
Date/Time
CDT
Tmp

°C
App
Tmp
°C
Dew
Point
°C
Rel
Hum
%
Delta-T

°C
Wind Press
QNH
hPa
Press
MSL
hPa
Rain
since
9 am
mm
Dir
 
Spd
km/h
Gust
km/h
Spd
kts
Gust
kts
27/11:30pm 26.1 21.8 12.0 41 8.1 ENE 26 33 14 18 1006.7 - 0.0
27/11:00pm 25.6 22.8 12.7 44 7.5 E 19 26 10 14 1008.0 - 0.0
27/10:30pm 25.5 23.4 12.5 44 7.5 E 15 20 8 11 1008.4 - 0.0
27/10:00pm 25.6 23.2 12.7 44 7.5 ESE 17 24 9 13 1008.7 - 0.0
27/09:30pm 26.1 22.5 12.0 41 8.1 ESE 22 33 12 18 1008.0 - 0.0
27/09:00pm 27.5 23.8 11.5 37 9.2 SE 22 32 12 17 1007.3 1007.2 0.0
27/08:30pm 28.2 25.6 12.0 36 9.4 SE 17 22 9 12 1007.1 - 0.0
27/08:00pm 27.2 25.3 15.2 47 7.3 S 19 24 10 13 1006.4 - 0.0
27/07:30pm 26.8 23.2 14.3 46 7.5 SW 26 35 14 19 1006.1 - 0.0
27/07:00pm 30.0 28.0 12.6 34 10.3 S 15 24 8 13 1005.6 - 0.0
27/06:30pm 32.0 30.0 11.5 28 12.0 S 13 17 7 9 1005.5 - 0.0
27/06:00pm 31.6 28.7 11.1 28 11.9 SSW 17 20 9 11 1005.5 1005.4 0.0
27/05:30pm 31.7 29.6 11.0 28 12.0 SSW 13 17 7 9 1005.6 - 0.0
27/05:00pm 30.9 28.8 11.0 29 11.5 SSW 13 15 7 8 1005.6 - 0.0
27/04:30pm 30.2 28.4 12.1 32 10.6 SW 13 15 7 8 1005.9 - 0.0
27/04:00pm 32.6 31.4 10.4 25 12.8 SW 7 9 4 5 1006.0 - 0.0
27/03:30pm 31.8 31.2 11.7 29 11.8 WSW 6 9 3 5 1006.3 - 0.0
27/03:00pm 30.8 29.8 12.3 32 10.9 W 9 13 5 7 1006.8 1006.7 0.0
27/02:30pm 27.7 26.4 13.8 42 8.3 WSW 13 17 7 9 1007.1 - 0.0
27/02:00pm 28.8 27.4 13.5 39 9.1 WSW 13 17 7 9 1007.4 - 0.0
27/01:30pm 28.6 27.1 13.0 38 9.2 WSW 13 15 7 8 1007.7 - 0.0
27/01:00pm 28.2 26.7 13.1 39 8.9 SW 13 19 7 10 1008.2 - 0.0
27/12:30pm 28.0 26.4 12.9 39 8.9 WSW 13 17 7 9 1008.7 - 0.0
27/12:00pm 27.2 25.0 12.2 39 8.7 WSW 15 22 8 12 1009.1 1009.0 0.0
27/11:30am 28.5 26.9 12.9 38 9.2 N 13 17 7 9 1009.2 - 0.0
27/11:00am 26.1 25.3 12.9 44 7.7 N 9 15 5 8 1009.8 - 0.0
27/10:30am 26.8 25.7 11.8 39 8.6 N 9 13 5 7 1009.9 - 0.0
27/10:00am 26.3 24.8 8.6 32 9.6 ESE 6 7 3 4 1010.0 - 0.0
27/09:30am 25.3 23.6 9.9 37 8.5 NNE 9 13 5 7 1010.0 - 0.0
27/09:00am 23.4 20.7 9.1 40 7.7 NNE 13 17 7 9 1010.0 1009.9 0.0
27/08:30am 21.5 20.1 9.4 46 6.5 N 7 11 4 6 1010.3 - 0.0
27/08:00am 20.3 19.7 11.6 57 4.8 ENE 6 7 3 4 1009.9 - 0.0
27/07:30am 19.0 19.3 12.2 64 3.8 E 2 9 1 5 1009.7 - 0.0
27/07:00am 18.8 19.3 11.7 63 3.9 CALM 0 0 0 0 1009.4 - 0.0
27/06:30am 18.3 18.7 11.3 63 3.8 CALM 0 0 0 0 1009.2 - 0.0
27/06:00am 18.5 19.0 11.6 64 3.8 CALM 0 0 0 0 1009.1 1009.0 0.0
27/05:30am 18.6 18.7 12.7 68 3.3 SW 4 7 2 4 1009.0 - 0.0
27/05:00am 18.9 19.6 12.3 65 3.7 CALM 0 0 0 0 1008.8 - 0.0
27/04:30am 18.9 19.5 11.8 63 3.9 CALM 0 4 0 2 1008.6 - 0.0
27/04:00am 19.2 18.4 11.6 61 4.2 ENE 7 9 4 5 1008.9 - 0.0
27/03:30am 19.1 18.2 11.2 60 4.3 NE 7 9 4 5 1009.2 - 0.0
27/03:00am 19.6 18.7 11.2 58 4.6 NNE 7 9 4 5 1009.3 1009.2 0.0
27/02:30am 20.0 19.8 11.7 59 4.6 E 4 7 2 4 1009.6 - 0.0
27/02:00am 20.5 21.0 11.7 57 4.9 CALM 0 0 0 0 1009.9 - 0.0
27/01:30am 20.5 21.1 11.9 57 4.8 CALM 0 0 0 0 1010.1 - 0.0
27/01:00am 20.9 21.4 11.5 55 5.2 CALM 0 0 0 0 1010.3 - 0.0
27/12:30am 21.9 22.4 11.7 52 5.7 CALM 0 4 0 2 1010.4 - 0.0
27/12:00am 22.8 22.2 10.4 45 6.8 SSE 4 9 2 5 1010.8 1010.7 0.0
 
Date/Time
CDT
Tmp

°C
App
Tmp
°C
Dew
Point
°C
Rel
Hum
%
Delta-T

°C
Wind Press
QNH
hPa
Press
MSL
hPa
Rain
since
9 am
mm
Dir
 
Spd
km/h
Gust
km/h
Spd
kts
Gust
kts
26/11:30pm 22.1 21.0 10.6 48 6.3 S 7 9 4 5 1011.2 - 0.0
26/11:00pm 22.4 21.7 12.1 52 5.8 SSW 7 9 4 5 1011.2 - 0.0
26/10:30pm 22.6 21.8 13.0 54 5.5 S 9 9 5 5 1011.2 - 0.0
26/10:00pm 22.8 22.0 15.1 62 4.6 SSW 13 15 7 8 1011.2 - 0.0
26/09:30pm 23.2 22.2 15.7 62 4.5 SW 15 17 8 9 1011.1 - 0.0
26/09:00pm 23.6 22.2 13.5 53 5.9 SSW 13 15 7 8 1010.8 1010.7 0.0
26/08:30pm 23.7 21.9 13.2 51 6.1 SW 15 19 8 10 1010.6 - 0.0
26/08:00pm 23.5 20.9 13.1 52 6.0 SW 19 22 10 12 1010.5 - 0.0
26/07:30pm 25.5 21.6 5.3 27 10.3 SW 15 19 8 10 1010.3 - 0.0
26/07:00pm 26.2 22.3 7.1 29 10.1 SSW 17 22 9 12 1010.2 - 0.0
26/06:30pm 26.0 21.4 3.6 23 11.1 SSW 17 24 9 13 1010.0 - 0.0
26/06:00pm 25.7 20.4 2.0 21 11.4 SSW 19 26 10 14 1010.0 1009.9 0.0
26/05:30pm 25.1 20.1 9.6 37 8.5 SW 26 32 14 17 1010.2 - 0.0
26/05:00pm 25.5 21.0 4.0 25 10.7 SSW 17 22 9 12 1010.1 - 0.0
26/04:30pm 24.7 20.1 11.0 42 7.7 SSW 26 33 14 18 1010.5 - 0.0
26/04:00pm 24.6 20.3 10.6 41 7.8 SSW 24 32 13 17 1010.6 - 0.0
26/03:30pm 24.2 19.3 9.8 40 7.9 WSW 26 32 14 17 1010.8 - 0.0
26/03:00pm 25.7 20.6 5.9 28 10.2 WSW 22 28 12 15 1011.0 1010.9 0.0
26/02:30pm 24.9 20.5 9.0 36 8.6 SW 22 28 12 15 1011.2 - 0.0
26/02:00pm 24.5 21.4 9.0 37 8.4 WSW 15 19 8 10 1011.3 - 0.0
26/01:30pm 24.5 21.8 10.4 41 7.8 W 15 20 8 11 1011.8 - 0.0
26/01:00pm 24.3 21.8 10.9 43 7.5 W 15 19 8 10 1012.1 - 0.0
26/12:30pm 24.1 22.0 9.9 40 7.8 WSW 11 17 6 9 1012.5 - 0.0
26/12:00pm 23.8 21.3 9.7 40 7.7 WSW 13 19 7 10 1012.9 1012.8 0.0
26/11:30am 23.6 20.2 7.6 35 8.4 W 15 20 8 11 1013.2 - 0.0
26/11:00am 23.2 20.0 6.7 34 8.5 WSW 13 17 7 9 1013.4 - 0.0
26/10:30am 22.3 20.4 11.8 51 5.9 W 13 19 7 10 1013.8 - 0.0
26/10:00am 22.5 20.1 10.2 45 6.7 W 13 17 7 9 1013.8 - 0.0
26/09:30am 21.8 20.5 9.8 46 6.5 WNW 7 11 4 6 1013.4 - 0.0
26/09:00am 21.2 19.3 6.9 39 7.3 NNW 6 9 3 5 1013.3 1013.2 0.0
26/08:30am 19.8 18.4 8.7 48 5.8 ENE 6 9 3 5 1012.7 - 0.0
26/08:00am 18.1 16.8 9.1 55 4.7 ESE 6 7 3 4 1012.4 - 0.0
26/07:30am 16.0 14.1 9.0 63 3.6 ENE 9 9 5 5 1012.1 - 0.0
26/07:00am 15.2 13.8 9.6 69 2.9 SE 7 9 4 5 1012.1 - 0.0
26/06:30am 15.8 15.8 9.9 68 3.1 CALM 0 7 0 4 1011.6 - 0.0
26/06:00am 15.7 13.9 9.5 66 3.2 NE 9 11 5 6 1011.2 1011.1 0.0
26/05:30am 14.9 13.5 9.5 70 2.8 NNE 7 13 4 7 1011.0 - 0.0
26/05:00am 16.7 14.5 9.4 62 3.8 N 11 13 6 7 1010.6 - 0.0
26/04:30am 15.8 14.2 8.8 63 3.6 NE 7 9 4 5 1011.0 - 0.0
26/04:00am 15.4 13.3 8.3 62 3.6 SSE 9 11 5 6 1011.6 - 0.0
26/03:30am 15.5 14.5 7.4 58 4.0 NE 2 9 1 5 1011.2 - 0.0
26/03:00am 16.7 14.8 8.9 60 4.0 NE 9 11 5 6 1011.1 1011.0 0.0
26/02:30am 17.3 16.9 8.3 55 4.6 CALM 0 6 0 3 1011.4 - 0.0
26/02:00am 17.0 16.4 7.4 53 4.8 CALM 0 4 0 2 1011.4 - 0.0
26/01:30am 17.1 16.6 8.0 55 4.6 CALM 0 0 0 0 1011.5 - 0.0
26/01:00am 17.4 15.8 8.0 54 4.8 SE 6 7 3 4 1011.8 - 0.0
26/12:30am 17.9 15.5 7.1 49 5.4 SSE 9 9 5 5 1012.3 - 0.0
26/12:00am 18.3 16.7 8.6 53 5.0 SSW 7 9 4 5 1012.6 1012.5 0.0
 
Date/Time
CDT
Tmp

°C
App
Tmp
°C
Dew
Point
°C
Rel
Hum
%
Delta-T

°C
Wind Press
QNH
hPa
Press
MSL
hPa
Rain
since
9 am
mm
Dir
 
Spd
km/h
Gust
km/h
Spd
kts
Gust
kts
25/11:30pm 17.9 17.9 9.8 59 4.3 CALM 0 0 0 0 1012.7 - 0.0
25/11:00pm 18.5 16.9 8.9 53 5.0 SSE 7 9 4 5 1013.0 - 0.0

Latest Capital City Observations: Canberra | Sydney | Melbourne | Brisbane | Adelaide | Perth | Hobart | Darwin

Other Formats:

Comma delimited format used in spreadsheet applications
http://www.bom.gov.au/fwo/IDS60901/IDS60901.94672.axf

JavaScript Object Notation format (JSON) in row-major order
http://www.bom.gov.au/fwo/IDS60901/IDS60901.94672.json